Terminal Aerodrome Forecast
Issued by NWS

Home | Current Version | Previous Version | Text Only | Print | Product List | Glossary On
Versions: 1 2 3 4 5 6 7 8 9 10 11 12 13
000
FTUS45 KSLC 260532
TAFLGU
TAF
KLGU 260532Z 2606/2706 20015G25KT P6SM VCSH SCT070 BKN090
     FM260800 32008KT P6SM VCSH SCT040 BKN070
     FM261800 29012G18KT P6SM VCSH SCT030 BKN050
     FM270200 32010KT P6SM SCT030 BKN050=

USA.gov is the U.S. government's official web portal to all federal, state and local government web resources and services.